Lubbock, TX (79401)

3:15 PM CDT on April 25, 2017 (GMT -0500)
ME3644 | | Change Station

Elev 3220 ft 33.58 °N, 101.88 °W | Updated 49 minutes ago

Mostly Cloudy
Mostly Cloudy
79.0 °F
Feels Like 78 °F
N
3.0
Wind Variable Wind from South
Gusts 15.0 mph

Today
High -- | Low -- °F
--% Chance of Precip.
Yesterday
High -- | Low -- °F
Precip. -- in
Pressure 29.33 in
Visibility 10.0 miles
Clouds Scattered Clouds 18000 ft
Mostly Cloudy 25000 ft
Mostly Cloudy 30000 ft
Heat Index 78 °F
Dew Point 29 °F
Humidity 16%
Rainfall 0.00 in
Snow Depth Not available.
7:04 AM 8:26 PM
Waning Crescent, 1% visible
METAR KLBB 251953Z 25015KT 10SM SCT180 BKN250 BKN300 29/M05 A2949 RMK AO2 SLP932 T02891050
Pressure 29.33 in
Visibility 10.0 miles
Clouds Scattered Clouds 18000 ft
Mostly Cloudy 25000 ft
Mostly Cloudy 30000 ft
Heat Index 78 °F
Dew Point 29 °F
Humidity 16%
Rainfall 0.00 in
Snow Depth Not available.
7:04 AM 8:26 PM
Waning Crescent, 1% visible
METAR KLBB 251953Z 25015KT 10SM SCT180 BKN250 BKN300 29/M05 A2949 RMK AO2 SLP932 T02891050

Get Severe Weather Alerts

Thanks for signing up!

Be on the lookout for a verification email in your inbox.

You'll start receiving the daily forecast at 8 AM.

×

10-Day Weather Forecast

Almanac

Astronomy

Apr. 25, 2017 Rise Set
Actual Time
Civil Twilight
Nautical Twilight
Astronomical Twilight
Moon
Length of Visible Light
Length of Day
Tomorrow will be .
, % of the Moon is Illuminated

Today's Extremes

State Highs State Lows

Community

WunderPhotos

WunderBlog® & News

Nearby

Air Quality

  Air Quality AQ Index Pollutant
Not available.

Snow Depth

Station Depth Elevation

Earthquake Activity

City Distance Mag. Time & Date
Minimum magnitude displayed is 2.5.

Coastal Water Temperatures

Place Temperature

Stations

Nearby Weather Stations

Station Location Temp. Windchill Dew Point Humidity Wind Precip. Elev Updated Type
                   

Watches & Warnings

There are currently no watches in effect.